sensor_id;sensor_type;location;lat;lon;timestamp;P1;durP1;ratioP1;P2;durP2;ratioP2
37805;SDS011;25082;50.870;0.022;2023-07-20T00:00:07;2.78;;;1.60;;
37805;SDS011;25082;50.870;0.022;2023-07-20T00:02:33;3.03;;;1.52;;
37805;SDS011;25082;50.870;0.022;2023-07-20T00:04:59;5.75;;;2.15;;
37805;SDS011;25082;50.870;0.022;2023-07-20T00:07:25;3.50;;;2.00;;
37805;SDS011;25082;50.870;0.022;2023-07-20T00:09:50;2.03;;;1.35;;
37805;SDS011;25082;50.870;0.022;2023-07-20T00:12:16;2.78;;;1.40;;
37805;SDS011;25082;50.870;0.022;2023-07-20T00:14:42;3.63;;;1.70;;
37805;SDS011;25082;50.870;0.022;2023-07-20T00:17:07;3.67;;;1.77;;
37805;SDS011;25082;50.870;0.022;2023-07-20T00:19:33;2.92;;;1.50;;
37805;SDS011;25082;50.870;0.022;2023-07-20T00:22:00;4.15;;;1.65;;
37805;SDS011;25082;50.870;0.022;2023-07-20T00:24:26;2.53;;;1.25;;
37805;SDS011;25082;50.870;0.022;2023-07-20T00:26:52;2.22;;;1.60;;
37805;SDS011;25082;50.870;0.022;2023-07-20T00:29:18;5.10;;;2.08;;
37805;SDS011;25082;50.870;0.022;2023-07-20T00:31:44;2.78;;;1.67;;
37805;SDS011;25082;50.870;0.022;2023-07-20T00:34:09;4.20;;;1.52;;
37805;SDS011;25082;50.870;0.022;2023-07-20T00:36:35;2.65;;;1.58;;
37805;SDS011;25082;50.870;0.022;2023-07-20T00:39:01;2.03;;;1.00;;
37805;SDS011;25082;50.870;0.022;2023-07-20T00:41:27;2.22;;;1.65;;
37805;SDS011;25082;50.870;0.022;2023-07-20T00:43:54;2.25;;;1.40;;
37805;SDS011;25082;50.870;0.022;2023-07-20T00:46:22;3.53;;;1.42;;
37805;SDS011;25082;50.870;0.022;2023-07-20T00:48:49;3.95;;;1.58;;
37805;SDS011;25082;50.870;0.022;2023-07-20T00:51:15;2.40;;;1.52;;
37805;SDS011;25082;50.870;0.022;2023-07-20T00:53:41;3.45;;;1.48;;
37805;SDS011;25082;50.870;0.022;2023-07-20T00:56:07;1.92;;;1.38;;
37805;SDS011;25082;50.870;0.022;2023-07-20T00:58:34;3.78;;;1.70;;
37805;SDS011;25082;50.870;0.022;2023-07-20T01:01:00;3.10;;;1.40;;
37805;SDS011;25082;50.870;0.022;2023-07-20T01:03:26;3.40;;;1.52;;
37805;SDS011;25082;50.870;0.022;2023-07-20T01:05:56;2.00;;;1.35;;
37805;SDS011;25082;50.870;0.022;2023-07-20T01:08:32;2.40;;;1.50;;
37805;SDS011;25082;50.870;0.022;2023-07-20T01:11:28;3.78;;;1.50;;
37805;SDS011;25082;50.870;0.022;2023-07-20T01:14:01;1.88;;;1.25;;
37805;SDS011;25082;50.870;0.022;2023-07-20T01:16:27;1.80;;;1.42;;
37805;SDS011;25082;50.870;0.022;2023-07-20T01:18:53;2.42;;;1.33;;
37805;SDS011;25082;50.870;0.022;2023-07-20T01:21:28;2.63;;;1.23;;
37805;SDS011;25082;50.870;0.022;2023-07-20T01:24:20;3.08;;;1.33;;
37805;SDS011;25082;50.870;0.022;2023-07-20T01:29:37;1.55;;;1.02;;
37805;SDS011;25082;50.870;0.022;2023-07-20T01:32:17;1.48;;;1.20;;
37805;SDS011;25082;50.870;0.022;2023-07-20T01:34:48;3.08;;;1.40;;
37805;SDS011;25082;50.870;0.022;2023-07-20T01:37:20;1.80;;;1.20;;
37805;SDS011;25082;50.870;0.022;2023-07-20T01:39:50;1.15;;;1.00;;
37805;SDS011;25082;50.870;0.022;2023-07-20T01:42:20;1.77;;;1.10;;
37805;SDS011;25082;50.870;0.022;2023-07-20T01:44:47;8.05;;;1.65;;
37805;SDS011;25082;50.870;0.022;2023-07-20T01:47:12;1.92;;;1.33;;
37805;SDS011;25082;50.870;0.022;2023-07-20T01:49:38;3.22;;;1.60;;
37805;SDS011;25082;50.870;0.022;2023-07-20T01:52:04;2.08;;;1.02;;
37805;SDS011;25082;50.870;0.022;2023-07-20T01:54:30;1.60;;;1.13;;
37805;SDS011;25082;50.870;0.022;2023-07-20T01:56:55;2.08;;;1.42;;
37805;SDS011;25082;50.870;0.022;2023-07-20T01:59:21;3.03;;;1.50;;
37805;SDS011;25082;50.870;0.022;2023-07-20T02:01:47;3.33;;;1.52;;
37805;SDS011;25082;50.870;0.022;2023-07-20T02:04:12;1.25;;;1.02;;
37805;SDS011;25082;50.870;0.022;2023-07-20T02:06:38;1.20;;;1.10;;
37805;SDS011;25082;50.870;0.022;2023-07-20T02:09:04;1.85;;;1.13;;
37805;SDS011;25082;50.870;0.022;2023-07-20T02:11:30;1.50;;;1.00;;
37805;SDS011;25082;50.870;0.022;2023-07-20T02:13:56;2.00;;;1.10;;
37805;SDS011;25082;50.870;0.022;2023-07-20T02:16:21;2.35;;;1.17;;
37805;SDS011;25082;50.870;0.022;2023-07-20T02:18:47;1.38;;;1.00;;
37805;SDS011;25082;50.870;0.022;2023-07-20T02:21:13;1.88;;;1.35;;
37805;SDS011;25082;50.870;0.022;2023-07-20T02:23:38;1.77;;;1.23;;
37805;SDS011;25082;50.870;0.022;2023-07-20T02:26:04;1.55;;;0.95;;
37805;SDS011;25082;50.870;0.022;2023-07-20T02:28:30;1.80;;;1.10;;
37805;SDS011;25082;50.870;0.022;2023-07-20T02:30:55;1.33;;;1.08;;
37805;SDS011;25082;50.870;0.022;2023-07-20T02:33:21;1.33;;;1.17;;
37805;SDS011;25082;50.870;0.022;2023-07-20T02:35:47;2.40;;;1.35;;
37805;SDS011;25082;50.870;0.022;2023-07-20T02:38:13;4.05;;;1.17;;
37805;SDS011;25082;50.870;0.022;2023-07-20T02:40:38;2.03;;;1.42;;
37805;SDS011;25082;50.870;0.022;2023-07-20T02:43:04;2.92;;;1.13;;
37805;SDS011;25082;50.870;0.022;2023-07-20T02:45:30;2.97;;;1.20;;
37805;SDS011;25082;50.870;0.022;2023-07-20T02:47:55;2.85;;;1.20;;
37805;SDS011;25082;50.870;0.022;2023-07-20T02:50:21;2.60;;;1.30;;
37805;SDS011;25082;50.870;0.022;2023-07-20T02:52:47;2.58;;;1.27;;
37805;SDS011;25082;50.870;0.022;2023-07-20T02:55:13;1.83;;;1.10;;
37805;SDS011;25082;50.870;0.022;2023-07-20T02:57:39;2.97;;;1.40;;
37805;SDS011;25082;50.870;0.022;2023-07-20T03:00:05;1.98;;;1.27;;
37805;SDS011;25082;50.870;0.022;2023-07-20T03:02:32;1.75;;;1.45;;
37805;SDS011;25082;50.870;0.022;2023-07-20T03:04:57;1.42;;;1.10;;
37805;SDS011;25082;50.870;0.022;2023-07-20T03:07:24;2.00;;;1.10;;
37805;SDS011;25082;50.870;0.022;2023-07-20T03:09:51;0.90;;;0.90;;
37805;SDS011;25082;50.870;0.022;2023-07-20T03:12:17;1.85;;;1.27;;
37805;SDS011;25082;50.870;0.022;2023-07-20T03:14:42;1.02;;;0.98;;
37805;SDS011;25082;50.870;0.022;2023-07-20T03:17:08;1.55;;;1.10;;
37805;SDS011;25082;50.870;0.022;2023-07-20T03:19:34;1.88;;;1.42;;
37805;SDS011;25082;50.870;0.022;2023-07-20T03:22:00;1.27;;;1.00;;
37805;SDS011;25082;50.870;0.022;2023-07-20T03:24:25;1.55;;;1.00;;
37805;SDS011;25082;50.870;0.022;2023-07-20T03:26:51;2.00;;;1.40;;
37805;SDS011;25082;50.870;0.022;2023-07-20T03:29:17;1.17;;;1.00;;
37805;SDS011;25082;50.870;0.022;2023-07-20T03:31:43;2.60;;;1.27;;
37805;SDS011;25082;50.870;0.022;2023-07-20T03:34:09;1.77;;;1.10;;
37805;SDS011;25082;50.870;0.022;2023-07-20T03:36:35;5.28;;;1.20;;
37805;SDS011;25082;50.870;0.022;2023-07-20T03:39:00;1.73;;;1.30;;
37805;SDS011;25082;50.870;0.022;2023-07-20T03:41:27;1.92;;;1.42;;
37805;SDS011;25082;50.870;0.022;2023-07-20T03:43:53;1.55;;;0.90;;
37805;SDS011;25082;50.870;0.022;2023-07-20T03:46:19;0.85;;;0.82;;
37805;SDS011;25082;50.870;0.022;2023-07-20T03:48:45;2.28;;;1.30;;
37805;SDS011;25082;50.870;0.022;2023-07-20T03:51:10;1.30;;;1.20;;
37805;SDS011;25082;50.870;0.022;2023-07-20T03:53:36;1.52;;;1.20;;
37805;SDS011;25082;50.870;0.022;2023-07-20T03:56:02;2.03;;;1.20;;
37805;SDS011;25082;50.870;0.022;2023-07-20T03:58:28;2.72;;;1.20;;
37805;SDS011;25082;50.870;0.022;2023-07-20T04:00:55;2.30;;;1.13;;
37805;SDS011;25082;50.870;0.022;2023-07-20T04:03:22;1.75;;;1.35;;
37805;SDS011;25082;50.870;0.022;2023-07-20T04:05:51;1.67;;;1.30;;
37805;SDS011;25082;50.870;0.022;2023-07-20T04:08:20;1.80;;;1.10;;
37805;SDS011;25082;50.870;0.022;2023-07-20T04:10:46;1.75;;;0.95;;
37805;SDS011;25082;50.870;0.022;2023-07-20T04:13:12;1.50;;;1.30;;
37805;SDS011;25082;50.870;0.022;2023-07-20T04:15:38;1.27;;;1.02;;
37805;SDS011;25082;50.870;0.022;2023-07-20T04:18:03;1.40;;;1.15;;
37805;SDS011;25082;50.870;0.022;2023-07-20T04:20:29;2.35;;;1.10;;
37805;SDS011;25082;50.870;0.022;2023-07-20T04:22:55;3.28;;;1.02;;
37805;SDS011;25082;50.870;0.022;2023-07-20T04:25:21;4.00;;;1.52;;
37805;SDS011;25082;50.870;0.022;2023-07-20T04:27:46;1.30;;;1.15;;
37805;SDS011;25082;50.870;0.022;2023-07-20T04:30:12;2.40;;;1.45;;
37805;SDS011;25082;50.870;0.022;2023-07-20T04:32:39;1.38;;;1.10;;
37805;SDS011;25082;50.870;0.022;2023-07-20T04:35:10;1.48;;;0.93;;
37805;SDS011;25082;50.870;0.022;2023-07-20T04:37:42;1.40;;;1.27;;
37805;SDS011;25082;50.870;0.022;2023-07-20T04:40:11;1.55;;;0.95;;
37805;SDS011;25082;50.870;0.022;2023-07-20T04:42:40;1.15;;;0.90;;
37805;SDS011;25082;50.870;0.022;2023-07-20T04:45:06;2.10;;;1.40;;
37805;SDS011;25082;50.870;0.022;2023-07-20T04:47:32;1.38;;;1.20;;
37805;SDS011;25082;50.870;0.022;2023-07-20T04:49:58;2.08;;;1.42;;
37805;SDS011;25082;50.870;0.022;2023-07-20T04:52:24;1.83;;;1.08;;
37805;SDS011;25082;50.870;0.022;2023-07-20T04:54:49;1.35;;;1.15;;
37805;SDS011;25082;50.870;0.022;2023-07-20T04:57:15;1.90;;;1.00;;
37805;SDS011;25082;50.870;0.022;2023-07-20T04:59:41;3.00;;;0.90;;
37805;SDS011;25082;50.870;0.022;2023-07-20T05:02:06;1.73;;;1.00;;
37805;SDS011;25082;50.870;0.022;2023-07-20T05:04:32;2.38;;;1.17;;
37805;SDS011;25082;50.870;0.022;2023-07-20T05:06:58;1.23;;;1.00;;
37805;SDS011;25082;50.870;0.022;2023-07-20T05:09:23;3.28;;;1.30;;
37805;SDS011;25082;50.870;0.022;2023-07-20T05:11:49;1.70;;;1.23;;
37805;SDS011;25082;50.870;0.022;2023-07-20T05:14:15;1.13;;;1.00;;
37805;SDS011;25082;50.870;0.022;2023-07-20T05:16:41;2.03;;;1.23;;
37805;SDS011;25082;50.870;0.022;2023-07-20T05:19:06;2.38;;;1.30;;
37805;SDS011;25082;50.870;0.022;2023-07-20T05:21:32;3.13;;;1.25;;
37805;SDS011;25082;50.870;0.022;2023-07-20T05:23:58;1.95;;;1.30;;
37805;SDS011;25082;50.870;0.022;2023-07-20T05:26:23;1.60;;;1.40;;
37805;SDS011;25082;50.870;0.022;2023-07-20T05:28:49;2.95;;;1.45;;
37805;SDS011;25082;50.870;0.022;2023-07-20T05:31:15;2.03;;;1.45;;
37805;SDS011;25082;50.870;0.022;2023-07-20T05:33:40;2.58;;;1.58;;
37805;SDS011;25082;50.870;0.022;2023-07-20T05:36:06;2.55;;;1.50;;
37805;SDS011;25082;50.870;0.022;2023-07-20T05:38:32;3.00;;;1.55;;
37805;SDS011;25082;50.870;0.022;2023-07-20T05:41:01;1.45;;;1.25;;
37805;SDS011;25082;50.870;0.022;2023-07-20T05:43:27;1.65;;;1.20;;
37805;SDS011;25082;50.870;0.022;2023-07-20T05:45:52;1.30;;;1.20;;
37805;SDS011;25082;50.870;0.022;2023-07-20T05:48:18;1.77;;;1.45;;
37805;SDS011;25082;50.870;0.022;2023-07-20T05:50:44;1.35;;;1.20;;
37805;SDS011;25082;50.870;0.022;2023-07-20T05:53:10;1.80;;;1.08;;
37805;SDS011;25082;50.870;0.022;2023-07-20T05:55:35;3.05;;;1.30;;
37805;SDS011;25082;50.870;0.022;2023-07-20T05:58:01;1.80;;;1.13;;
37805;SDS011;25082;50.870;0.022;2023-07-20T06:00:29;1.23;;;1.00;;
37805;SDS011;25082;50.870;0.022;2023-07-20T06:02:54;2.85;;;1.40;;
37805;SDS011;25082;50.870;0.022;2023-07-20T06:05:23;1.98;;;1.20;;
37805;SDS011;25082;50.870;0.022;2023-07-20T06:07:49;1.60;;;1.10;;
37805;SDS011;25082;50.870;0.022;2023-07-20T06:10:15;1.35;;;1.25;;
37805;SDS011;25082;50.870;0.022;2023-07-20T06:12:41;1.55;;;1.27;;
37805;SDS011;25082;50.870;0.022;2023-07-20T06:15:16;2.05;;;1.08;;
37805;SDS011;25082;50.870;0.022;2023-07-20T06:17:53;2.10;;;1.20;;
37805;SDS011;25082;50.870;0.022;2023-07-20T06:20:21;2.55;;;1.40;;
37805;SDS011;25082;50.870;0.022;2023-07-20T06:22:47;1.92;;;1.40;;
37805;SDS011;25082;50.870;0.022;2023-07-20T06:25:13;1.30;;;1.20;;
37805;SDS011;25082;50.870;0.022;2023-07-20T06:27:39;1.73;;;1.20;;
37805;SDS011;25082;50.870;0.022;2023-07-20T06:30:05;1.65;;;1.10;;
37805;SDS011;25082;50.870;0.022;2023-07-20T06:32:31;1.70;;;1.30;;
37805;SDS011;25082;50.870;0.022;2023-07-20T06:34:57;1.05;;;0.95;;
37805;SDS011;25082;50.870;0.022;2023-07-20T06:37:23;2.13;;;1.50;;
37805;SDS011;25082;50.870;0.022;2023-07-20T06:39:49;2.03;;;1.30;;
37805;SDS011;25082;50.870;0.022;2023-07-20T06:42:14;1.20;;;1.10;;
37805;SDS011;25082;50.870;0.022;2023-07-20T06:44:40;1.58;;;1.05;;
37805;SDS011;25082;50.870;0.022;2023-07-20T06:47:06;2.05;;;1.50;;
37805;SDS011;25082;50.870;0.022;2023-07-20T06:49:32;1.83;;;1.30;;
37805;SDS011;25082;50.870;0.022;2023-07-20T06:51:58;2.22;;;1.20;;
37805;SDS011;25082;50.870;0.022;2023-07-20T06:54:24;2.53;;;1.52;;
37805;SDS011;25082;50.870;0.022;2023-07-20T06:56:50;2.08;;;1.35;;
37805;SDS011;25082;50.870;0.022;2023-07-20T06:59:16;1.98;;;1.40;;
37805;SDS011;25082;50.870;0.022;2023-07-20T07:01:42;1.83;;;1.30;;
37805;SDS011;25082;50.870;0.022;2023-07-20T07:04:08;1.90;;;1.30;;
37805;SDS011;25082;50.870;0.022;2023-07-20T07:06:34;1.60;;;1.20;;
37805;SDS011;25082;50.870;0.022;2023-07-20T07:09:02;1.60;;;1.33;;
37805;SDS011;25082;50.870;0.022;2023-07-20T07:11:28;4.15;;;1.55;;
37805;SDS011;25082;50.870;0.022;2023-07-20T07:13:54;1.20;;;1.10;;
37805;SDS011;25082;50.870;0.022;2023-07-20T07:16:20;1.33;;;1.10;;
37805;SDS011;25082;50.870;0.022;2023-07-20T07:18:46;2.10;;;1.10;;
37805;SDS011;25082;50.870;0.022;2023-07-20T07:21:11;2.25;;;1.60;;
37805;SDS011;25082;50.870;0.022;2023-07-20T07:23:37;2.25;;;1.60;;
37805;SDS011;25082;50.870;0.022;2023-07-20T07:26:04;1.38;;;1.27;;
37805;SDS011;25082;50.870;0.022;2023-07-20T07:28:30;2.35;;;1.42;;
37805;SDS011;25082;50.870;0.022;2023-07-20T07:30:57;1.73;;;1.10;;
37805;SDS011;25082;50.870;0.022;2023-07-20T07:33:23;1.48;;;1.20;;
37805;SDS011;25082;50.870;0.022;2023-07-20T07:35:49;1.67;;;1.27;;
37805;SDS011;25082;50.870;0.022;2023-07-20T07:38:17;2.33;;;1.58;;
37805;SDS011;25082;50.870;0.022;2023-07-20T07:40:43;2.75;;;1.40;;
37805;SDS011;25082;50.870;0.022;2023-07-20T07:43:09;2.35;;;1.40;;
37805;SDS011;25082;50.870;0.022;2023-07-20T07:45:35;1.77;;;1.25;;
37805;SDS011;25082;50.870;0.022;2023-07-20T07:48:04;1.60;;;1.20;;
37805;SDS011;25082;50.870;0.022;2023-07-20T07:50:30;2.78;;;1.38;;
37805;SDS011;25082;50.870;0.022;2023-07-20T07:52:56;1.77;;;1.20;;
37805;SDS011;25082;50.870;0.022;2023-07-20T07:55:22;2.22;;;1.20;;
37805;SDS011;25082;50.870;0.022;2023-07-20T07:57:49;3.13;;;1.30;;
37805;SDS011;25082;50.870;0.022;2023-07-20T08:00:15;4.28;;;1.30;;
37805;SDS011;25082;50.870;0.022;2023-07-20T08:02:43;1.88;;;1.35;;
37805;SDS011;25082;50.870;0.022;2023-07-20T08:05:10;1.40;;;1.10;;
37805;SDS011;25082;50.870;0.022;2023-07-20T08:07:36;2.80;;;1.38;;
37805;SDS011;25082;50.870;0.022;2023-07-20T08:10:02;2.30;;;1.40;;
37805;SDS011;25082;50.870;0.022;2023-07-20T08:12:28;2.47;;;1.38;;
37805;SDS011;25082;50.870;0.022;2023-07-20T08:14:53;1.70;;;1.30;;
37805;SDS011;25082;50.870;0.022;2023-07-20T08:17:19;2.53;;;1.48;;
37805;SDS011;25082;50.870;0.022;2023-07-20T08:19:45;1.85;;;1.38;;
37805;SDS011;25082;50.870;0.022;2023-07-20T08:22:11;1.77;;;1.25;;
37805;SDS011;25082;50.870;0.022;2023-07-20T08:24:41;1.83;;;1.50;;
37805;SDS011;25082;50.870;0.022;2023-07-20T08:27:07;2.03;;;1.15;;
37805;SDS011;25082;50.870;0.022;2023-07-20T08:29:34;1.67;;;1.30;;
37805;SDS011;25082;50.870;0.022;2023-07-20T08:31:59;1.98;;;1.30;;
37805;SDS011;25082;50.870;0.022;2023-07-20T08:34:25;2.35;;;1.30;;
37805;SDS011;25082;50.870;0.022;2023-07-20T08:36:51;1.38;;;1.20;;
37805;SDS011;25082;50.870;0.022;2023-07-20T08:39:17;1.88;;;1.27;;
37805;SDS011;25082;50.870;0.022;2023-07-20T08:41:42;1.58;;;1.20;;
37805;SDS011;25082;50.870;0.022;2023-07-20T08:44:08;2.42;;;1.70;;
37805;SDS011;25082;50.870;0.022;2023-07-20T08:46:35;2.92;;;1.38;;
37805;SDS011;25082;50.870;0.022;2023-07-20T08:49:04;1.90;;;1.38;;
37805;SDS011;25082;50.870;0.022;2023-07-20T08:51:30;1.95;;;1.23;;
37805;SDS011;25082;50.870;0.022;2023-07-20T08:53:57;2.28;;;1.65;;
37805;SDS011;25082;50.870;0.022;2023-07-20T08:56:23;1.80;;;1.38;;
37805;SDS011;25082;50.870;0.022;2023-07-20T08:58:51;2.45;;;1.33;;
37805;SDS011;25082;50.870;0.022;2023-07-20T09:01:18;1.90;;;1.35;;
37805;SDS011;25082;50.870;0.022;2023-07-20T09:03:45;1.50;;;1.35;;
37805;SDS011;25082;50.870;0.022;2023-07-20T09:06:12;1.65;;;1.10;;
37805;SDS011;25082;50.870;0.022;2023-07-20T09:08:39;6.68;;;1.70;;
37805;SDS011;25082;50.870;0.022;2023-07-20T09:11:11;2.83;;;1.30;;
37805;SDS011;25082;50.870;0.022;2023-07-20T09:13:37;4.65;;;1.50;;
37805;SDS011;25082;50.870;0.022;2023-07-20T09:16:03;4.93;;;1.40;;
37805;SDS011;25082;50.870;0.022;2023-07-20T09:18:33;2.75;;;1.50;;
37805;SDS011;25082;50.870;0.022;2023-07-20T09:21:02;7.82;;;1.80;;
37805;SDS011;25082;50.870;0.022;2023-07-20T09:23:30;2.33;;;1.23;;
37805;SDS011;25082;50.870;0.022;2023-07-20T09:25:59;2.88;;;1.40;;
37805;SDS011;25082;50.870;0.022;2023-07-20T09:28:25;6.38;;;1.65;;
37805;SDS011;25082;50.870;0.022;2023-07-20T09:30:52;4.82;;;1.60;;
37805;SDS011;25082;50.870;0.022;2023-07-20T09:33:23;3.95;;;1.75;;
37805;SDS011;25082;50.870;0.022;2023-07-20T09:35:49;6.20;;;1.77;;
37805;SDS011;25082;50.870;0.022;2023-07-20T09:38:15;8.40;;;1.52;;
37805;SDS011;25082;50.870;0.022;2023-07-20T09:40:41;8.10;;;1.75;;
37805;SDS011;25082;50.870;0.022;2023-07-20T09:43:07;5.78;;;1.67;;
37805;SDS011;25082;50.870;0.022;2023-07-20T09:45:43;5.32;;;1.80;;
37805;SDS011;25082;50.870;0.022;2023-07-20T09:48:09;8.50;;;1.42;;
37805;SDS011;25082;50.870;0.022;2023-07-20T09:50:39;6.25;;;2.15;;
37805;SDS011;25082;50.870;0.022;2023-07-20T09:53:07;4.07;;;2.03;;
37805;SDS011;25082;50.870;0.022;2023-07-20T09:55:40;6.60;;;1.85;;
37805;SDS011;25082;50.870;0.022;2023-07-20T09:58:09;7.80;;;1.75;;
37805;SDS011;25082;50.870;0.022;2023-07-20T10:00:36;3.80;;;1.60;;
37805;SDS011;25082;50.870;0.022;2023-07-20T10:03:06;10.13;;;1.98;;
37805;SDS011;25082;50.870;0.022;2023-07-20T10:05:33;5.20;;;1.80;;
37805;SDS011;25082;50.870;0.022;2023-07-20T10:08:02;3.97;;;1.50;;
37805;SDS011;25082;50.870;0.022;2023-07-20T10:10:30;13.00;;;1.90;;
37805;SDS011;25082;50.870;0.022;2023-07-20T10:12:58;4.65;;;1.67;;
37805;SDS011;25082;50.870;0.022;2023-07-20T10:18:07;4.15;;;1.85;;
37805;SDS011;25082;50.870;0.022;2023-07-20T10:20:39;6.93;;;2.10;;
37805;SDS011;25082;50.870;0.022;2023-07-20T10:23:08;3.22;;;1.55;;
37805;SDS011;25082;50.870;0.022;2023-07-20T10:25:35;5.35;;;1.85;;
37805;SDS011;25082;50.870;0.022;2023-07-20T10:28:06;4.47;;;1.60;;
37805;SDS011;25082;50.870;0.022;2023-07-20T10:30:35;3.00;;;1.42;;
37805;SDS011;25082;50.870;0.022;2023-07-20T10:33:02;2.55;;;1.33;;
37805;SDS011;25082;50.870;0.022;2023-07-20T10:35:29;1.50;;;1.20;;
37805;SDS011;25082;50.870;0.022;2023-07-20T10:38:04;2.70;;;1.38;;
37805;SDS011;25082;50.870;0.022;2023-07-20T10:40:33;2.55;;;1.23;;
37805;SDS011;25082;50.870;0.022;2023-07-20T10:48:21;3.17;;;1.40;;
37805;SDS011;25082;50.870;0.022;2023-07-20T10:53:48;2.58;;;1.60;;
37805;SDS011;25082;50.870;0.022;2023-07-20T10:56:15;3.80;;;1.67;;
37805;SDS011;25082;50.870;0.022;2023-07-20T10:58:48;7.88;;;1.42;;
37805;SDS011;25082;50.870;0.022;2023-07-20T11:01:15;6.45;;;1.90;;
37805;SDS011;25082;50.870;0.022;2023-07-20T11:03:42;5.13;;;1.77;;
37805;SDS011;25082;50.870;0.022;2023-07-20T11:11:30;2.08;;;1.30;;
37805;SDS011;25082;50.870;0.022;2023-07-20T11:14:00;2.33;;;1.65;;
37805;SDS011;25082;50.870;0.022;2023-07-20T11:16:37;1.80;;;1.40;;
37805;SDS011;25082;50.870;0.022;2023-07-20T11:19:05;2.42;;;1.20;;
37805;SDS011;25082;50.870;0.022;2023-07-20T11:21:41;2.08;;;1.45;;
37805;SDS011;25082;50.870;0.022;2023-07-20T11:24:07;1.35;;;1.23;;
37805;SDS011;25082;50.870;0.022;2023-07-20T11:26:45;3.50;;;1.73;;
37805;SDS011;25082;50.870;0.022;2023-07-20T11:29:22;5.75;;;1.60;;
37805;SDS011;25082;50.870;0.022;2023-07-20T11:31:49;2.50;;;1.67;;
37805;SDS011;25082;50.870;0.022;2023-07-20T11:34:19;2.20;;;1.63;;
37805;SDS011;25082;50.870;0.022;2023-07-20T11:36:46;4.88;;;2.13;;
37805;SDS011;25082;50.870;0.022;2023-07-20T11:39:14;4.95;;;1.73;;
37805;SDS011;25082;50.870;0.022;2023-07-20T11:41:52;4.00;;;1.90;;
37805;SDS011;25082;50.870;0.022;2023-07-20T11:44:20;4.30;;;1.48;;
37805;SDS011;25082;50.870;0.022;2023-07-20T11:47:09;3.25;;;2.08;;
37805;SDS011;25082;50.870;0.022;2023-07-20T11:49:43;3.22;;;1.73;;
37805;SDS011;25082;50.870;0.022;2023-07-20T11:52:13;2.35;;;1.70;;
37805;SDS011;25082;50.870;0.022;2023-07-20T11:54:41;4.75;;;2.50;;
37805;SDS011;25082;50.870;0.022;2023-07-20T11:57:15;4.50;;;2.10;;
37805;SDS011;25082;50.870;0.022;2023-07-20T12:02:23;3.22;;;1.73;;
37805;SDS011;25082;50.870;0.022;2023-07-20T12:04:51;2.75;;;1.90;;
37805;SDS011;25082;50.870;0.022;2023-07-20T12:07:18;3.47;;;2.20;;
37805;SDS011;25082;50.870;0.022;2023-07-20T12:09:44;7.47;;;4.45;;
37805;SDS011;25082;50.870;0.022;2023-07-20T12:12:27;4.60;;;2.72;;
37805;SDS011;25082;50.870;0.022;2023-07-20T12:14:53;7.70;;;4.07;;
37805;SDS011;25082;50.870;0.022;2023-07-20T12:17:19;9.40;;;5.72;;
37805;SDS011;25082;50.870;0.022;2023-07-20T12:19:45;9.40;;;5.28;;
37805;SDS011;25082;50.870;0.022;2023-07-20T12:22:11;8.38;;;5.53;;
37805;SDS011;25082;50.870;0.022;2023-07-20T12:24:37;7.30;;;4.43;;
37805;SDS011;25082;50.870;0.022;2023-07-20T12:27:03;6.63;;;3.92;;
37805;SDS011;25082;50.870;0.022;2023-07-20T12:29:29;5.93;;;4.05;;
37805;SDS011;25082;50.870;0.022;2023-07-20T12:31:56;7.30;;;3.97;;
37805;SDS011;25082;50.870;0.022;2023-07-20T12:34:22;6.93;;;3.75;;
37805;SDS011;25082;50.870;0.022;2023-07-20T12:36:48;7.28;;;3.30;;
37805;SDS011;25082;50.870;0.022;2023-07-20T12:39:14;4.93;;;3.42;;
37805;SDS011;25082;50.870;0.022;2023-07-20T12:41:39;6.38;;;2.58;;
37805;SDS011;25082;50.870;0.022;2023-07-20T12:44:05;10.13;;;3.28;;
37805;SDS011;25082;50.870;0.022;2023-07-20T12:46:31;4.00;;;2.40;;
37805;SDS011;25082;50.870;0.022;2023-07-20T12:49:00;6.13;;;2.50;;
37805;SDS011;25082;50.870;0.022;2023-07-20T12:51:25;4.00;;;2.40;;
37805;SDS011;25082;50.870;0.022;2023-07-20T12:53:51;3.92;;;2.38;;
37805;SDS011;25082;50.870;0.022;2023-07-20T12:56:17;4.95;;;2.30;;
37805;SDS011;25082;50.870;0.022;2023-07-20T12:58:44;4.88;;;2.60;;
37805;SDS011;25082;50.870;0.022;2023-07-20T13:01:09;6.18;;;2.28;;
37805;SDS011;25082;50.870;0.022;2023-07-20T13:03:35;5.20;;;2.38;;
37805;SDS011;25082;50.870;0.022;2023-07-20T13:06:01;6.05;;;2.13;;
37805;SDS011;25082;50.870;0.022;2023-07-20T13:08:26;5.90;;;2.47;;
37805;SDS011;25082;50.870;0.022;2023-07-20T13:10:52;4.05;;;1.95;;
37805;SDS011;25082;50.870;0.022;2023-07-20T13:13:18;4.10;;;2.50;;
37805;SDS011;25082;50.870;0.022;2023-07-20T13:15:44;4.43;;;2.45;;
37805;SDS011;25082;50.870;0.022;2023-07-20T13:18:11;4.15;;;2.47;;
37805;SDS011;25082;50.870;0.022;2023-07-20T13:20:37;3.47;;;1.95;;
37805;SDS011;25082;50.870;0.022;2023-07-20T13:23:03;4.07;;;2.05;;
37805;SDS011;25082;50.870;0.022;2023-07-20T13:25:30;1.95;;;1.75;;
37805;SDS011;25082;50.870;0.022;2023-07-20T13:27:56;4.57;;;1.88;;
37805;SDS011;25082;50.870;0.022;2023-07-20T13:30:21;1.90;;;1.65;;
37805;SDS011;25082;50.870;0.022;2023-07-20T13:32:48;2.63;;;2.13;;
37805;SDS011;25082;50.870;0.022;2023-07-20T13:35:14;3.55;;;1.55;;
37805;SDS011;25082;50.870;0.022;2023-07-20T13:37:40;4.25;;;1.80;;
37805;SDS011;25082;50.870;0.022;2023-07-20T13:40:06;1.80;;;1.42;;
37805;SDS011;25082;50.870;0.022;2023-07-20T13:45:05;2.55;;;1.35;;
37805;SDS011;25082;50.870;0.022;2023-07-20T13:47:32;7.93;;;2.00;;
37805;SDS011;25082;50.870;0.022;2023-07-20T13:49:58;8.27;;;2.17;;
37805;SDS011;25082;50.870;0.022;2023-07-20T13:52:24;5.97;;;1.90;;
37805;SDS011;25082;50.870;0.022;2023-07-20T13:54:50;4.15;;;2.03;;
37805;SDS011;25082;50.870;0.022;2023-07-20T13:57:16;5.50;;;1.90;;
37805;SDS011;25082;50.870;0.022;2023-07-20T13:59:42;6.20;;;1.98;;
37805;SDS011;25082;50.870;0.022;2023-07-20T14:02:09;4.25;;;1.73;;
37805;SDS011;25082;50.870;0.022;2023-07-20T14:04:35;3.90;;;1.83;;
37805;SDS011;25082;50.870;0.022;2023-07-20T14:07:02;8.30;;;2.17;;
37805;SDS011;25082;50.870;0.022;2023-07-20T14:09:28;5.68;;;2.13;;
37805;SDS011;25082;50.870;0.022;2023-07-20T14:11:54;4.07;;;2.03;;
37805;SDS011;25082;50.870;0.022;2023-07-20T14:14:20;2.60;;;1.65;;
37805;SDS011;25082;50.870;0.022;2023-07-20T14:16:45;3.38;;;1.90;;
37805;SDS011;25082;50.870;0.022;2023-07-20T14:19:11;5.30;;;2.03;;
37805;SDS011;25082;50.870;0.022;2023-07-20T14:21:37;2.55;;;1.70;;
37805;SDS011;25082;50.870;0.022;2023-07-20T14:24:04;3.72;;;1.58;;
37805;SDS011;25082;50.870;0.022;2023-07-20T14:26:30;4.43;;;1.63;;
37805;SDS011;25082;50.870;0.022;2023-07-20T14:28:56;4.13;;;1.80;;
37805;SDS011;25082;50.870;0.022;2023-07-20T14:31:22;2.00;;;1.55;;
37805;SDS011;25082;50.870;0.022;2023-07-20T14:33:48;2.92;;;1.63;;
37805;SDS011;25082;50.870;0.022;2023-07-20T14:36:13;4.13;;;1.40;;
37805;SDS011;25082;50.870;0.022;2023-07-20T14:38:40;3.67;;;1.65;;
37805;SDS011;25082;50.870;0.022;2023-07-20T14:41:06;4.93;;;1.55;;
37805;SDS011;25082;50.870;0.022;2023-07-20T14:43:32;2.15;;;1.50;;
37805;SDS011;25082;50.870;0.022;2023-07-20T14:45:58;5.40;;;1.80;;
37805;SDS011;25082;50.870;0.022;2023-07-20T14:48:24;2.75;;;1.50;;
37805;SDS011;25082;50.870;0.022;2023-07-20T14:50:50;1.88;;;1.30;;
37805;SDS011;25082;50.870;0.022;2023-07-20T14:53:16;2.33;;;1.40;;
37805;SDS011;25082;50.870;0.022;2023-07-20T14:55:42;2.95;;;1.48;;
37805;SDS011;25082;50.870;0.022;2023-07-20T14:58:09;1.63;;;1.50;;
37805;SDS011;25082;50.870;0.022;2023-07-20T15:00:35;1.85;;;1.42;;
37805;SDS011;25082;50.870;0.022;2023-07-20T15:03:01;4.20;;;1.83;;
37805;SDS011;25082;50.870;0.022;2023-07-20T15:05:27;3.20;;;1.60;;
37805;SDS011;25082;50.870;0.022;2023-07-20T15:07:53;2.38;;;1.40;;
37805;SDS011;25082;50.870;0.022;2023-07-20T15:10:19;4.57;;;1.80;;